sensor_id;sensor_type;location;lat;lon;timestamp;P1;durP1;ratioP1;P2;durP2;ratioP2
48554;SDS011;34336;48.270;16.716;2022-10-19T00:01:05;33.72;;;25.33;;
48554;SDS011;34336;48.270;16.716;2022-10-19T00:03:35;35.88;;;27.10;;
48554;SDS011;34336;48.270;16.716;2022-10-19T00:06:09;38.00;;;27.33;;
48554;SDS011;34336;48.270;16.716;2022-10-19T00:08:37;38.15;;;26.77;;
48554;SDS011;34336;48.270;16.716;2022-10-19T00:11:04;37.60;;;26.38;;
48554;SDS011;34336;48.270;16.716;2022-10-19T00:13:31;38.30;;;27.65;;
48554;SDS011;34336;48.270;16.716;2022-10-19T00:15:58;35.45;;;25.27;;
48554;SDS011;34336;48.270;16.716;2022-10-19T00:18:27;36.78;;;26.75;;
48554;SDS011;34336;48.270;16.716;2022-10-19T00:21:00;39.67;;;27.90;;
48554;SDS011;34336;48.270;16.716;2022-10-19T00:23:29;38.17;;;27.52;;
48554;SDS011;34336;48.270;16.716;2022-10-19T00:25:55;39.00;;;29.27;;
48554;SDS011;34336;48.270;16.716;2022-10-19T00:28:22;39.70;;;27.92;;
48554;SDS011;34336;48.270;16.716;2022-10-19T00:30:49;41.88;;;29.00;;
48554;SDS011;34336;48.270;16.716;2022-10-19T00:33:16;40.45;;;29.13;;
48554;SDS011;34336;48.270;16.716;2022-10-19T00:35:50;39.00;;;28.48;;
48554;SDS011;34336;48.270;16.716;2022-10-19T00:38:19;42.25;;;29.33;;
48554;SDS011;34336;48.270;16.716;2022-10-19T00:40:46;43.05;;;29.10;;
48554;SDS011;34336;48.270;16.716;2022-10-19T00:43:14;36.92;;;27.05;;
48554;SDS011;34336;48.270;16.716;2022-10-19T00:45:43;40.17;;;28.30;;
48554;SDS011;34336;48.270;16.716;2022-10-19T00:48:10;38.47;;;27.23;;
48554;SDS011;34336;48.270;16.716;2022-10-19T00:50:41;40.88;;;27.15;;
48554;SDS011;34336;48.270;16.716;2022-10-19T00:53:08;37.00;;;26.42;;
48554;SDS011;34336;48.270;16.716;2022-10-19T00:55:36;40.60;;;28.25;;
48554;SDS011;34336;48.270;16.716;2022-10-19T00:58:04;39.67;;;26.73;;
48554;SDS011;34336;48.270;16.716;2022-10-19T01:00:31;38.08;;;26.30;;
48554;SDS011;34336;48.270;16.716;2022-10-19T01:03:00;39.70;;;26.85;;
48554;SDS011;34336;48.270;16.716;2022-10-19T01:05:28;35.97;;;24.10;;
48554;SDS011;34336;48.270;16.716;2022-10-19T01:07:56;37.63;;;25.95;;
48554;SDS011;34336;48.270;16.716;2022-10-19T01:10:24;37.88;;;25.40;;
48554;SDS011;34336;48.270;16.716;2022-10-19T01:13:12;34.95;;;24.63;;
48554;SDS011;34336;48.270;16.716;2022-10-19T01:15:53;38.35;;;25.77;;
48554;SDS011;34336;48.270;16.716;2022-10-19T01:18:43;39.58;;;26.13;;
48554;SDS011;34336;48.270;16.716;2022-10-19T01:32:07;37.45;;;24.90;;
48554;SDS011;34336;48.270;16.716;2022-10-19T01:39:42;35.03;;;23.73;;
48554;SDS011;34336;48.270;16.716;2022-10-19T01:42:23;36.50;;;22.95;;
48554;SDS011;34336;48.270;16.716;2022-10-19T01:45:02;33.28;;;22.15;;
48554;SDS011;34336;48.270;16.716;2022-10-19T01:53:01;41.03;;;25.15;;
48554;SDS011;34336;48.270;16.716;2022-10-19T01:55:34;34.67;;;23.50;;
48554;SDS011;34336;48.270;16.716;2022-10-19T01:58:05;36.67;;;25.42;;
48554;SDS011;34336;48.270;16.716;2022-10-19T02:00:36;37.67;;;25.33;;
48554;SDS011;34336;48.270;16.716;2022-10-19T02:03:06;35.43;;;23.70;;
48554;SDS011;34336;48.270;16.716;2022-10-19T02:05:37;36.42;;;24.08;;
48554;SDS011;34336;48.270;16.716;2022-10-19T02:08:10;34.50;;;23.35;;
48554;SDS011;34336;48.270;16.716;2022-10-19T02:10:40;36.88;;;23.45;;
48554;SDS011;34336;48.270;16.716;2022-10-19T02:13:10;35.28;;;22.13;;
48554;SDS011;34336;48.270;16.716;2022-10-19T02:15:40;31.83;;;21.40;;
48554;SDS011;34336;48.270;16.716;2022-10-19T02:18:11;33.47;;;21.08;;
48554;SDS011;34336;48.270;16.716;2022-10-19T02:20:40;32.28;;;21.85;;
48554;SDS011;34336;48.270;16.716;2022-10-19T02:23:07;30.40;;;21.67;;
48554;SDS011;34336;48.270;16.716;2022-10-19T02:25:34;29.08;;;20.00;;
48554;SDS011;34336;48.270;16.716;2022-10-19T02:28:02;28.08;;;18.75;;
48554;SDS011;34336;48.270;16.716;2022-10-19T02:30:29;31.02;;;20.00;;
48554;SDS011;34336;48.270;16.716;2022-10-19T02:32:56;26.15;;;18.48;;
48554;SDS011;34336;48.270;16.716;2022-10-19T02:35:23;27.27;;;18.65;;
48554;SDS011;34336;48.270;16.716;2022-10-19T02:37:50;26.90;;;18.23;;
48554;SDS011;34336;48.270;16.716;2022-10-19T02:40:17;30.05;;;18.48;;
48554;SDS011;34336;48.270;16.716;2022-10-19T02:43:17;28.30;;;18.15;;
48554;SDS011;34336;48.270;16.716;2022-10-19T02:45:43;27.25;;;17.63;;
48554;SDS011;34336;48.270;16.716;2022-10-19T02:48:17;26.90;;;17.88;;
48554;SDS011;34336;48.270;16.716;2022-10-19T02:50:47;24.02;;;17.13;;
48554;SDS011;34336;48.270;16.716;2022-10-19T02:53:14;27.75;;;18.05;;
48554;SDS011;34336;48.270;16.716;2022-10-19T02:55:41;24.98;;;16.10;;
48554;SDS011;34336;48.270;16.716;2022-10-19T02:58:08;24.65;;;17.80;;
48554;SDS011;34336;48.270;16.716;2022-10-19T03:00:35;22.08;;;16.17;;
48554;SDS011;34336;48.270;16.716;2022-10-19T03:03:02;22.95;;;14.95;;
48554;SDS011;34336;48.270;16.716;2022-10-19T03:05:28;22.85;;;16.00;;
48554;SDS011;34336;48.270;16.716;2022-10-19T03:07:55;21.88;;;15.25;;
48554;SDS011;34336;48.270;16.716;2022-10-19T03:10:22;24.35;;;16.02;;
48554;SDS011;34336;48.270;16.716;2022-10-19T03:12:49;23.88;;;15.73;;
48554;SDS011;34336;48.270;16.716;2022-10-19T03:15:16;20.58;;;15.15;;
48554;SDS011;34336;48.270;16.716;2022-10-19T03:17:44;23.20;;;15.27;;
48554;SDS011;34336;48.270;16.716;2022-10-19T03:20:10;22.98;;;15.55;;
48554;SDS011;34336;48.270;16.716;2022-10-19T03:22:37;22.40;;;15.80;;
48554;SDS011;34336;48.270;16.716;2022-10-19T03:25:04;20.95;;;15.07;;
48554;SDS011;34336;48.270;16.716;2022-10-19T03:27:31;21.35;;;15.55;;
48554;SDS011;34336;48.270;16.716;2022-10-19T03:29:58;21.83;;;15.23;;
48554;SDS011;34336;48.270;16.716;2022-10-19T03:32:25;20.92;;;15.07;;
48554;SDS011;34336;48.270;16.716;2022-10-19T03:34:52;23.05;;;15.10;;
48554;SDS011;34336;48.270;16.716;2022-10-19T03:37:19;21.55;;;15.13;;
48554;SDS011;34336;48.270;16.716;2022-10-19T03:39:45;24.75;;;15.20;;
48554;SDS011;34336;48.270;16.716;2022-10-19T03:42:12;21.90;;;14.75;;
48554;SDS011;34336;48.270;16.716;2022-10-19T03:44:38;20.63;;;14.38;;
48554;SDS011;34336;48.270;16.716;2022-10-19T03:47:05;23.80;;;15.57;;
48554;SDS011;34336;48.270;16.716;2022-10-19T03:49:32;22.98;;;14.40;;
48554;SDS011;34336;48.270;16.716;2022-10-19T03:52:02;25.88;;;16.05;;
48554;SDS011;34336;48.270;16.716;2022-10-19T03:54:29;24.42;;;15.63;;
48554;SDS011;34336;48.270;16.716;2022-10-19T03:56:55;21.48;;;15.27;;
48554;SDS011;34336;48.270;16.716;2022-10-19T03:59:22;23.27;;;15.80;;
48554;SDS011;34336;48.270;16.716;2022-10-19T04:01:49;23.85;;;15.75;;
48554;SDS011;34336;48.270;16.716;2022-10-19T04:04:16;26.70;;;16.77;;
48554;SDS011;34336;48.270;16.716;2022-10-19T04:06:45;26.30;;;16.67;;
48554;SDS011;34336;48.270;16.716;2022-10-19T04:09:15;25.77;;;16.67;;
48554;SDS011;34336;48.270;16.716;2022-10-19T04:11:44;25.50;;;15.40;;
48554;SDS011;34336;48.270;16.716;2022-10-19T04:14:12;23.80;;;15.40;;
48554;SDS011;34336;48.270;16.716;2022-10-19T04:16:58;24.08;;;16.48;;
48554;SDS011;34336;48.270;16.716;2022-10-19T04:19:25;23.90;;;15.88;;
48554;SDS011;34336;48.270;16.716;2022-10-19T04:21:52;22.65;;;15.93;;
48554;SDS011;34336;48.270;16.716;2022-10-19T04:24:18;25.85;;;15.80;;
48554;SDS011;34336;48.270;16.716;2022-10-19T04:26:46;22.02;;;15.75;;
48554;SDS011;34336;48.270;16.716;2022-10-19T04:29:15;23.88;;;15.43;;
48554;SDS011;34336;48.270;16.716;2022-10-19T04:31:44;25.85;;;15.73;;
48554;SDS011;34336;48.270;16.716;2022-10-19T04:34:13;35.60;;;24.20;;
48554;SDS011;34336;48.270;16.716;2022-10-19T04:36:39;29.13;;;19.73;;
48554;SDS011;34336;48.270;16.716;2022-10-19T04:39:06;22.30;;;15.57;;
48554;SDS011;34336;48.270;16.716;2022-10-19T04:41:34;18.73;;;13.80;;
48554;SDS011;34336;48.270;16.716;2022-10-19T04:44:03;20.92;;;13.88;;
48554;SDS011;34336;48.270;16.716;2022-10-19T04:46:32;18.65;;;13.25;;
48554;SDS011;34336;48.270;16.716;2022-10-19T04:48:58;19.42;;;14.02;;
48554;SDS011;34336;48.270;16.716;2022-10-19T04:51:25;21.05;;;13.93;;
48554;SDS011;34336;48.270;16.716;2022-10-19T04:53:53;24.27;;;13.82;;
48554;SDS011;34336;48.270;16.716;2022-10-19T04:56:25;19.65;;;13.30;;
48554;SDS011;34336;48.270;16.716;2022-10-19T04:58:53;19.88;;;12.80;;
48554;SDS011;34336;48.270;16.716;2022-10-19T05:01:22;20.05;;;13.52;;
48554;SDS011;34336;48.270;16.716;2022-10-19T05:03:59;20.52;;;14.00;;
48554;SDS011;34336;48.270;16.716;2022-10-19T05:06:28;19.40;;;12.70;;
48554;SDS011;34336;48.270;16.716;2022-10-19T05:08:55;22.02;;;13.60;;
48554;SDS011;34336;48.270;16.716;2022-10-19T05:11:22;19.58;;;12.98;;
48554;SDS011;34336;48.270;16.716;2022-10-19T05:13:49;19.58;;;13.82;;
48554;SDS011;34336;48.270;16.716;2022-10-19T05:16:17;21.05;;;12.85;;
48554;SDS011;34336;48.270;16.716;2022-10-19T05:18:46;21.23;;;13.52;;
48554;SDS011;34336;48.270;16.716;2022-10-19T05:21:14;21.40;;;13.55;;
48554;SDS011;34336;48.270;16.716;2022-10-19T05:23:41;19.52;;;13.32;;
48554;SDS011;34336;48.270;16.716;2022-10-19T05:26:12;19.75;;;13.50;;
48554;SDS011;34336;48.270;16.716;2022-10-19T05:28:46;22.50;;;14.05;;
48554;SDS011;34336;48.270;16.716;2022-10-19T05:31:17;17.85;;;12.52;;
48554;SDS011;34336;48.270;16.716;2022-10-19T05:33:45;20.08;;;12.88;;
48554;SDS011;34336;48.270;16.716;2022-10-19T05:38:53;20.45;;;14.15;;
48554;SDS011;34336;48.270;16.716;2022-10-19T05:41:22;20.52;;;13.50;;
48554;SDS011;34336;48.270;16.716;2022-10-19T05:43:51;20.10;;;13.60;;
48554;SDS011;34336;48.270;16.716;2022-10-19T05:46:19;22.52;;;14.57;;
48554;SDS011;34336;48.270;16.716;2022-10-19T05:48:46;18.90;;;13.05;;
48554;SDS011;34336;48.270;16.716;2022-10-19T05:51:13;21.02;;;13.18;;
48554;SDS011;34336;48.270;16.716;2022-10-19T05:53:42;16.77;;;11.40;;
48554;SDS011;34336;48.270;16.716;2022-10-19T05:56:12;16.75;;;12.07;;
48554;SDS011;34336;48.270;16.716;2022-10-19T05:58:40;15.77;;;11.05;;
48554;SDS011;34336;48.270;16.716;2022-10-19T06:01:07;17.95;;;11.63;;
48554;SDS011;34336;48.270;16.716;2022-10-19T06:03:34;15.77;;;10.98;;
48554;SDS011;34336;48.270;16.716;2022-10-19T06:06:05;15.07;;;10.80;;
48554;SDS011;34336;48.270;16.716;2022-10-19T06:08:33;13.68;;;10.05;;
48554;SDS011;34336;48.270;16.716;2022-10-19T06:11:04;14.13;;;10.55;;
48554;SDS011;34336;48.270;16.716;2022-10-19T06:13:39;14.57;;;10.30;;
48554;SDS011;34336;48.270;16.716;2022-10-19T06:16:07;13.40;;;10.45;;
48554;SDS011;34336;48.270;16.716;2022-10-19T06:18:35;14.52;;;10.65;;
48554;SDS011;34336;48.270;16.716;2022-10-19T06:21:04;14.73;;;10.85;;
48554;SDS011;34336;48.270;16.716;2022-10-19T06:23:32;14.20;;;10.20;;
48554;SDS011;34336;48.270;16.716;2022-10-19T06:26:04;14.45;;;9.45;;
48554;SDS011;34336;48.270;16.716;2022-10-19T06:28:33;13.13;;;9.93;;
48554;SDS011;34336;48.270;16.716;2022-10-19T06:31:00;12.68;;;9.50;;
48554;SDS011;34336;48.270;16.716;2022-10-19T06:33:29;13.43;;;9.38;;
48554;SDS011;34336;48.270;16.716;2022-10-19T06:36:12;14.00;;;10.13;;
48554;SDS011;34336;48.270;16.716;2022-10-19T06:38:41;13.10;;;9.90;;
48554;SDS011;34336;48.270;16.716;2022-10-19T06:41:08;11.60;;;9.02;;
48554;SDS011;34336;48.270;16.716;2022-10-19T06:43:36;13.13;;;9.73;;
48554;SDS011;34336;48.270;16.716;2022-10-19T06:46:06;12.07;;;8.80;;
48554;SDS011;34336;48.270;16.716;2022-10-19T06:48:34;12.40;;;8.57;;
48554;SDS011;34336;48.270;16.716;2022-10-19T06:51:02;11.32;;;8.38;;
48554;SDS011;34336;48.270;16.716;2022-10-19T06:53:32;12.70;;;8.43;;
48554;SDS011;34336;48.270;16.716;2022-10-19T06:56:00;9.90;;;7.93;;
48554;SDS011;34336;48.270;16.716;2022-10-19T06:58:29;9.63;;;7.47;;
48554;SDS011;34336;48.270;16.716;2022-10-19T07:00:57;8.80;;;7.30;;
48554;SDS011;34336;48.270;16.716;2022-10-19T07:03:25;10.27;;;7.85;;
48554;SDS011;34336;48.270;16.716;2022-10-19T07:05:54;12.25;;;8.77;;
48554;SDS011;34336;48.270;16.716;2022-10-19T07:08:41;10.98;;;8.00;;
48554;SDS011;34336;48.270;16.716;2022-10-19T07:11:13;9.90;;;6.90;;
48554;SDS011;34336;48.270;16.716;2022-10-19T07:13:42;10.43;;;7.72;;
48554;SDS011;34336;48.270;16.716;2022-10-19T07:16:10;8.38;;;6.85;;
48554;SDS011;34336;48.270;16.716;2022-10-19T07:18:46;10.25;;;7.72;;
48554;SDS011;34336;48.270;16.716;2022-10-19T07:21:14;8.55;;;6.80;;
48554;SDS011;34336;48.270;16.716;2022-10-19T07:23:42;8.52;;;7.07;;
48554;SDS011;34336;48.270;16.716;2022-10-19T07:26:14;10.63;;;7.13;;
48554;SDS011;34336;48.270;16.716;2022-10-19T07:28:41;8.70;;;6.93;;
48554;SDS011;34336;48.270;16.716;2022-10-19T07:31:10;9.93;;;6.60;;
48554;SDS011;34336;48.270;16.716;2022-10-19T07:33:38;8.95;;;6.38;;
48554;SDS011;34336;48.270;16.716;2022-10-19T07:36:06;9.90;;;6.10;;
48554;SDS011;34336;48.270;16.716;2022-10-19T07:38:33;8.63;;;6.60;;
48554;SDS011;34336;48.270;16.716;2022-10-19T07:41:02;8.10;;;6.18;;
48554;SDS011;34336;48.270;16.716;2022-10-19T07:43:34;8.80;;;6.32;;
48554;SDS011;34336;48.270;16.716;2022-10-19T07:46:01;7.18;;;5.75;;
48554;SDS011;34336;48.270;16.716;2022-10-19T07:48:31;8.88;;;5.95;;
48554;SDS011;34336;48.270;16.716;2022-10-19T07:51:00;7.70;;;5.22;;
48554;SDS011;34336;48.270;16.716;2022-10-19T07:53:27;7.05;;;4.80;;
48554;SDS011;34336;48.270;16.716;2022-10-19T07:55:54;7.40;;;4.97;;
48554;SDS011;34336;48.270;16.716;2022-10-19T07:58:21;6.25;;;5.03;;
48554;SDS011;34336;48.270;16.716;2022-10-19T08:00:48;6.07;;;5.05;;
48554;SDS011;34336;48.270;16.716;2022-10-19T08:03:14;7.03;;;4.80;;
48554;SDS011;34336;48.270;16.716;2022-10-19T08:06:02;5.82;;;4.90;;
48554;SDS011;34336;48.270;16.716;2022-10-19T08:08:30;5.50;;;4.55;;
48554;SDS011;34336;48.270;16.716;2022-10-19T08:11:01;5.00;;;4.50;;
48554;SDS011;34336;48.270;16.716;2022-10-19T08:13:40;8.25;;;4.88;;
48554;SDS011;34336;48.270;16.716;2022-10-19T08:16:19;6.15;;;5.07;;
48554;SDS011;34336;48.270;16.716;2022-10-19T08:18:46;10.82;;;4.68;;
48554;SDS011;34336;48.270;16.716;2022-10-19T08:21:12;5.75;;;4.68;;
48554;SDS011;34336;48.270;16.716;2022-10-19T08:23:39;5.53;;;4.18;;
48554;SDS011;34336;48.270;16.716;2022-10-19T08:26:06;6.10;;;4.35;;
48554;SDS011;34336;48.270;16.716;2022-10-19T08:28:33;5.93;;;4.32;;
48554;SDS011;34336;48.270;16.716;2022-10-19T08:31:07;6.30;;;4.85;;
48554;SDS011;34336;48.270;16.716;2022-10-19T08:33:39;5.38;;;4.10;;
48554;SDS011;34336;48.270;16.716;2022-10-19T08:36:06;9.55;;;4.88;;
48554;SDS011;34336;48.270;16.716;2022-10-19T08:38:34;5.55;;;4.47;;
48554;SDS011;34336;48.270;16.716;2022-10-19T08:46:58;6.90;;;4.28;;
48554;SDS011;34336;48.270;16.716;2022-10-19T08:49:33;6.57;;;4.18;;
48554;SDS011;34336;48.270;16.716;2022-10-19T08:52:23;6.22;;;4.53;;
48554;SDS011;34336;48.270;16.716;2022-10-19T08:54:51;7.28;;;4.07;;
48554;SDS011;34336;48.270;16.716;2022-10-19T08:57:27;5.13;;;4.40;;
48554;SDS011;34336;48.270;16.716;2022-10-19T09:00:07;6.72;;;4.43;;
48554;SDS011;34336;48.270;16.716;2022-10-19T09:03:44;5.53;;;4.68;;
48554;SDS011;34336;48.270;16.716;2022-10-19T09:06:22;5.97;;;4.70;;
48554;SDS011;34336;48.270;16.716;2022-10-19T09:08:54;8.35;;;4.97;;
48554;SDS011;34336;48.270;16.716;2022-10-19T09:11:24;7.75;;;4.75;;
48554;SDS011;34336;48.270;16.716;2022-10-19T09:14:02;6.25;;;4.53;;
48554;SDS011;34336;48.270;16.716;2022-10-19T09:16:36;6.55;;;4.47;;
48554;SDS011;34336;48.270;16.716;2022-10-19T09:19:08;8.07;;;5.47;;
48554;SDS011;34336;48.270;16.716;2022-10-19T09:22:00;7.40;;;5.60;;
48554;SDS011;34336;48.270;16.716;2022-10-19T09:24:40;5.63;;;4.97;;
48554;SDS011;34336;48.270;16.716;2022-10-19T09:27:18;7.05;;;4.75;;
48554;SDS011;34336;48.270;16.716;2022-10-19T09:29:54;6.35;;;4.22;;
48554;SDS011;34336;48.270;16.716;2022-10-19T09:32:27;5.82;;;4.55;;
48554;SDS011;34336;48.270;16.716;2022-10-19T09:35:02;7.50;;;5.15;;
48554;SDS011;34336;48.270;16.716;2022-10-19T09:37:30;6.28;;;5.38;;
48554;SDS011;34336;48.270;16.716;2022-10-19T09:39:59;6.25;;;5.10;;
48554;SDS011;34336;48.270;16.716;2022-10-19T09:42:27;6.10;;;5.35;;
48554;SDS011;34336;48.270;16.716;2022-10-19T09:44:56;7.97;;;5.97;;
48554;SDS011;34336;48.270;16.716;2022-10-19T09:50:24;6.75;;;5.00;;
48554;SDS011;34336;48.270;16.716;2022-10-19T09:55:32;7.93;;;5.95;;
48554;SDS011;34336;48.270;16.716;2022-10-19T10:00:41;6.43;;;5.70;;
48554;SDS011;34336;48.270;16.716;2022-10-19T10:05:48;7.10;;;5.97;;
48554;SDS011;34336;48.270;16.716;2022-10-19T10:08:17;7.00;;;5.70;;
48554;SDS011;34336;48.270;16.716;2022-10-19T10:10:47;7.80;;;5.50;;
48554;SDS011;34336;48.270;16.716;2022-10-19T10:13:20;7.30;;;6.18;;
48554;SDS011;34336;48.270;16.716;2022-10-19T10:15:50;8.07;;;6.22;;
48554;SDS011;34336;48.270;16.716;2022-10-19T10:18:22;9.48;;;7.07;;
48554;SDS011;34336;48.270;16.716;2022-10-19T10:24:25;8.55;;;7.13;;
48554;SDS011;34336;48.270;16.716;2022-10-19T10:26:48;7.85;;;6.25;;
48554;SDS011;34336;48.270;16.716;2022-10-19T10:31:53;11.38;;;6.68;;
48554;SDS011;34336;48.270;16.716;2022-10-19T10:34:27;9.75;;;6.35;;
48554;SDS011;34336;48.270;16.716;2022-10-19T10:37:21;7.03;;;6.28;;
48554;SDS011;34336;48.270;16.716;2022-10-19T10:39:54;8.25;;;6.75;;
48554;SDS011;34336;48.270;16.716;2022-10-19T10:42:31;9.80;;;7.00;;
48554;SDS011;34336;48.270;16.716;2022-10-19T10:45:00;7.70;;;6.93;;
48554;SDS011;34336;48.270;16.716;2022-10-19T10:47:28;8.30;;;6.53;;
48554;SDS011;34336;48.270;16.716;2022-10-19T10:50:00;8.88;;;7.15;;
48554;SDS011;34336;48.270;16.716;2022-10-19T10:52:31;9.88;;;7.32;;
48554;SDS011;34336;48.270;16.716;2022-10-19T10:57:35;8.25;;;7.03;;
48554;SDS011;34336;48.270;16.716;2022-10-19T11:02:45;9.70;;;7.78;;
48554;SDS011;34336;48.270;16.716;2022-10-19T11:05:33;8.93;;;6.85;;
48554;SDS011;34336;48.270;16.716;2022-10-19T11:08:10;9.73;;;6.72;;
48554;SDS011;34336;48.270;16.716;2022-10-19T11:16:15;7.43;;;6.65;;
48554;SDS011;34336;48.270;16.716;2022-10-19T11:21:41;8.40;;;5.90;;
48554;SDS011;34336;48.270;16.716;2022-10-19T11:32:23;6.97;;;5.60;;
48554;SDS011;34336;48.270;16.716;2022-10-19T11:47:08;6.70;;;6.00;;
48554;SDS011;34336;48.270;16.716;2022-10-19T11:57:46;7.18;;;6.45;;
48554;SDS011;34336;48.270;16.716;2022-10-19T12:00:22;7.87;;;7.07;;
48554;SDS011;34336;48.270;16.716;2022-10-19T12:06:16;8.35;;;7.03;;
48554;SDS011;34336;48.270;16.716;2022-10-19T12:14:45;9.48;;;8.07;;
48554;SDS011;34336;48.270;16.716;2022-10-19T12:17:27;8.85;;;7.18;;
48554;SDS011;34336;48.270;16.716;2022-10-19T12:19:59;8.80;;;7.67;;
48554;SDS011;34336;48.270;16.716;2022-10-19T12:22:30;10.60;;;8.20;;
48554;SDS011;34336;48.270;16.716;2022-10-19T12:25:02;8.23;;;7.43;;
48554;SDS011;34336;48.270;16.716;2022-10-19T12:27:34;8.88;;;7.70;;
48554;SDS011;34336;48.270;16.716;2022-10-19T12:30:22;8.68;;;7.47;;
48554;SDS011;34336;48.270;16.716;2022-10-19T12:35:54;10.20;;;8.10;;
48554;SDS011;34336;48.270;16.716;2022-10-19T12:38:28;13.48;;;7.78;;
48554;SDS011;34336;48.270;16.716;2022-10-19T12:41:36;10.77;;;7.28;;
48554;SDS011;34336;48.270;16.716;2022-10-19T12:47:08;9.60;;;6.70;;
48554;SDS011;34336;48.270;16.716;2022-10-19T12:49:46;10.98;;;7.88;;
48554;SDS011;34336;48.270;16.716;2022-10-19T12:57:37;9.73;;;8.13;;
48554;SDS011;34336;48.270;16.716;2022-10-19T13:00:17;13.52;;;11.10;;
48554;SDS011;34336;48.270;16.716;2022-10-19T13:02:46;12.00;;;8.23;;
48554;SDS011;34336;48.270;16.716;2022-10-19T13:05:21;12.45;;;9.02;;
48554;SDS011;34336;48.270;16.716;2022-10-19T13:07:49;11.02;;;8.77;;
48554;SDS011;34336;48.270;16.716;2022-10-19T13:10:23;10.75;;;8.55;;
48554;SDS011;34336;48.270;16.716;2022-10-19T13:12:52;9.98;;;7.63;;
48554;SDS011;34336;48.270;16.716;2022-10-19T13:18:01;10.23;;;7.30;;
48554;SDS011;34336;48.270;16.716;2022-10-19T13:25:37;9.70;;;7.30;;
48554;SDS011;34336;48.270;16.716;2022-10-19T13:41:06;10.38;;;6.88;;
48554;SDS011;34336;48.270;16.716;2022-10-19T13:51:50;9.30;;;6.70;;
48554;SDS011;34336;48.270;16.716;2022-10-19T14:00:48;9.15;;;7.05;;
48554;SDS011;34336;48.270;16.716;2022-10-19T14:04:25;9.35;;;6.57;;
48554;SDS011;34336;48.270;16.716;2022-10-19T14:06:39;7.75;;;5.80;;
48554;SDS011;34336;48.270;16.716;2022-10-19T14:11:40;7.90;;;6.03;;
48554;SDS011;34336;48.270;16.716;2022-10-19T14:19:40;10.52;;;5.97;;
48554;SDS011;34336;48.270;16.716;2022-10-19T14:25:00;7.25;;;5.15;;
48554;SDS011;34336;48.270;16.716;2022-10-19T14:27:30;5.88;;;4.40;;
48554;SDS011;34336;48.270;16.716;2022-10-19T14:29:57;9.35;;;4.72;;
48554;SDS011;34336;48.270;16.716;2022-10-19T14:32:24;9.10;;;5.60;;
48554;SDS011;34336;48.270;16.716;2022-10-19T14:35:01;8.93;;;5.78;;
48554;SDS011;34336;48.270;16.716;2022-10-19T14:37:31;8.73;;;5.22;;
48554;SDS011;34336;48.270;16.716;2022-10-19T14:40:06;7.35;;;4.93;;
48554;SDS011;34336;48.270;16.716;2022-10-19T14:42:54;8.57;;;4.95;;
48554;SDS011;34336;48.270;16.716;2022-10-19T14:50:22;8.27;;;5.20;;
48554;SDS011;34336;48.270;16.716;2022-10-19T14:52:53;6.90;;;4.50;;
48554;SDS011;34336;48.270;16.716;2022-10-19T14:55:31;6.45;;;4.50;;
48554;SDS011;34336;48.270;16.716;2022-10-19T14:58:02;9.57;;;5.20;;
48554;SDS011;34336;48.270;16.716;2022-10-19T15:00:35;6.70;;;3.60;;
48554;SDS011;34336;48.270;16.716;2022-10-19T15:03:05;5.72;;;3.88;;
48554;SDS011;34336;48.270;16.716;2022-10-19T15:05:36;7.30;;;4.13;;
48554;SDS011;34336;48.270;16.716;2022-10-19T15:08:19;8.20;;;3.55;;
48554;SDS011;34336;48.270;16.716;2022-10-19T15:10:55;9.45;;;3.53;;
48554;SDS011;34336;48.270;16.716;2022-10-19T15:13:24;4.78;;;3.20;;
48554;SDS011;34336;48.270;16.716;2022-10-19T15:15:54;10.18;;;3.90;;
48554;SDS011;34336;48.270;16.716;2022-10-19T15:18:22;5.07;;;3.13;;
48554;SDS011;34336;48.270;16.716;2022-10-19T15:21:11;7.43;;;3.50;;
48554;SDS011;34336;48.270;16.716;2022-10-19T15:23:45;6.40;;;3.80;;
48554;SDS011;34336;48.270;16.716;2022-10-19T15:28:42;5.93;;;3.60;;
48554;SDS011;34336;48.270;16.716;2022-10-19T15:33:56;7.82;;;3.00;;
48554;SDS011;34336;48.270;16.716;2022-10-19T15:36:28;5.57;;;3.35;;
48554;SDS011;34336;48.270;16.716;2022-10-19T15:41:43;5.43;;;3.20;;
48554;SDS011;34336;48.270;16.716;2022-10-19T15:54:48;4.68;;;2.78;;
48554;SDS011;34336;48.270;16.716;2022-10-19T15:57:34;5.72;;;2.80;;
48554;SDS011;34336;48.270;16.716;2022-10-19T16:02:33;7.15;;;2.70;;
48554;SDS011;34336;48.270;16.716;2022-10-19T16:05:00;7.13;;;3.83;;
48554;SDS011;34336;48.270;16.716;2022-10-19T16:07:28;6.70;;;2.90;;
48554;SDS011;34336;48.270;16.716;2022-10-19T16:09:57;7.07;;;2.50;;
48554;SDS011;34336;48.270;16.716;2022-10-19T16:12:24;4.72;;;2.88;;
48554;SDS011;34336;48.270;16.716;2022-10-19T16:14:52;4.80;;;2.58;;
48554;SDS011;34336;48.270;16.716;2022-10-19T16:17:19;8.82;;;2.95;;
48554;SDS011;34336;48.270;16.716;2022-10-19T16:19:46;5.00;;;2.30;;
48554;SDS011;34336;48.270;16.716;2022-10-19T16:22:13;5.10;;;2.55;;
48554;SDS011;34336;48.270;16.716;2022-10-19T16:24:41;7.63;;;3.20;;
48554;SDS011;34336;48.270;16.716;2022-10-19T16:27:08;4.90;;;2.80;;
48554;SDS011;34336;48.270;16.716;2022-10-19T16:29:40;4.53;;;2.50;;
48554;SDS011;34336;48.270;16.716;2022-10-19T16:32:08;5.93;;;2.78;;
48554;SDS011;34336;48.270;16.716;2022-10-19T16:34:35;3.17;;;2.10;;
48554;SDS011;34336;48.270;16.716;2022-10-19T16:37:01;5.90;;;2.20;;
48554;SDS011;34336;48.270;16.716;2022-10-19T16:39:32;4.10;;;2.20;;
48554;SDS011;34336;48.270;16.716;2022-10-19T16:41:59;5.20;;;2.28;;
48554;SDS011;34336;48.270;16.716;2022-10-19T16:44:26;8.57;;;2.90;;
48554;SDS011;34336;48.270;16.716;2022-10-19T16:46:54;7.13;;;2.50;;
48554;SDS011;34336;48.270;16.716;2022-10-19T16:49:22;4.60;;;3.00;;
48554;SDS011;34336;48.270;16.716;2022-10-19T16:51:48;6.47;;;2.50;;
48554;SDS011;34336;48.270;16.716;2022-10-19T16:54:21;7.18;;;2.70;;
48554;SDS011;34336;48.270;16.716;2022-10-19T16:56:48;2.53;;;2.25;;
48554;SDS011;34336;48.270;16.716;2022-10-19T16:59:16;6.15;;;3.15;;
48554;SDS011;34336;48.270;16.716;2022-10-19T17:01:44;4.85;;;2.53;;
48554;SDS011;34336;48.270;16.716;2022-10-19T17:04:12;6.13;;;2.28;;
48554;SDS011;34336;48.270;16.716;2022-10-19T17:06:39;4.20;;;2.75;;
48554;SDS011;34336;48.270;16.716;2022-10-19T17:09:06;3.95;;;2.10;;
48554;SDS011;34336;48.270;16.716;2022-10-19T17:11:53;7.40;;;2.35;;
48554;SDS011;34336;48.270;16.716;2022-10-19T17:14:19;5.85;;;2.50;;
48554;SDS011;34336;48.270;16.716;2022-10-19T17:16:46;5.20;;;2.50;;
48554;SDS011;34336;48.270;16.716;2022-10-19T17:19:13;4.28;;;2.40;;
48554;SDS011;34336;48.270;16.716;2022-10-19T17:21:39;3.85;;;2.40;;
48554;SDS011;34336;48.270;16.716;2022-10-19T17:24:11;7.20;;;3.33;;
48554;SDS011;34336;48.270;16.716;2022-10-19T17:26:46;16.63;;;9.50;;
48554;SDS011;34336;48.270;16.716;2022-10-19T17:29:14;43.80;;;25.05;;
48554;SDS011;34336;48.270;16.716;2022-10-19T17:31:41;12.55;;;6.80;;
48554;SDS011;34336;48.270;16.716;2022-10-19T17:34:09;5.07;;;2.80;;
48554;SDS011;34336;48.270;16.716;2022-10-19T17:36:37;9.32;;;4.97;;
48554;SDS011;34336;48.270;16.716;2022-10-19T17:39:11;8.15;;;4.22;;
48554;SDS011;34336;48.270;16.716;2022-10-19T17:41:44;6.78;;;3.80;;
48554;SDS011;34336;48.270;16.716;2022-10-19T17:44:12;6.25;;;3.60;;
48554;SDS011;34336;48.270;16.716;2022-10-19T17:46:39;5.90;;;3.78;;